Time;durP1;ratioP1;P1;durP2;ratioP2;P2;SDS_P1;SDS_P2;PMS_P1;PMS_P2;Temp;Humidity;BMP_temperature;BMP_pressure;BME280_temperature;BME280_humidity;BME280_pressure;Samples;Min_cycle;Max_cycle;Signal;HPM_P1;HPM_P2
2023/09/10 00:01:31;;;;;;;;;;;;;;;;;;6239618;23;19943;-94
2023/09/10 00:03:57;;;;;;;;;;;;;;;;;;6243911;23;19908;-94
2023/09/10 00:06:23;;;;;;;;;;;;;;;;;;6244592;23;19912;-95
2023/09/10 00:08:49;;;;;;;;;;;;;;;;;;6247248;23;20629;-94
2023/09/10 00:11:15;;;;;;;;;;;;;;;;;;6269984;22;19912;-94
2023/09/10 00:16:11;;;;;;;;;;;;;;;;;;6257218;22;20230;-93
2023/09/10 00:18:46;;;;;;;;;;;;;;;;;;6224060;23;19906;-93
2023/09/10 00:21:13;;;;;;;;;;;;;;;;;;6222959;23;19903;-91
2023/09/10 00:23:48;;;;;;;;;;;;;;;;;;6222910;23;19899;-94
2023/09/10 00:26:14;;;;;;;;;;;;;;;;;;6223919;23;20321;-93
2023/09/10 00:28:40;;;;;;;;;;;;;;;;;;6224663;23;19907;-93
2023/09/10 00:31:07;;;;;;;;;;;;;;;;;;6223237;23;19904;-93
2023/09/10 00:33:33;;;;;;;;;;;;;;;;;;6222877;23;19911;-92
2023/09/10 00:36:10;;;;;;;;;;;;;;;;;;6222596;23;19903;-92
2023/09/10 00:38:36;;;;;;;;;;;;;;;;;;6222724;23;19925;-94
2023/09/10 00:41:05;;;;;;;;;;;;;;;;;;6224418;23;19982;-92
2023/09/10 00:43:31;;;;;;;;;;;;;;;;;;6222803;23;19907;-95
2023/09/10 00:45:57;;;;;;;;;;;;;;;;;;6223264;23;19919;-95
2023/09/10 00:48:23;;;;;;;;;;;;;;;;;;6222643;23;19904;-92
2023/09/10 00:50:49;;;;;;;;;;;;;;;;;;6222135;23;19904;-93
2023/09/10 00:53:15;;;;;;;;;;;;;;;;;;6222656;23;19911;-93
2023/09/10 00:55:41;;;;;;;;;;;;;;;;;;6222533;23;20340;-94
2023/09/10 00:58:08;;;;;;;;;;;;;;;;;;6222733;23;19931;-91
2023/09/10 01:00:34;;;;;;;;;;;;;;;;;;6223360;23;19982;-94
2023/09/10 01:03:00;;;;;;;;;;;;;;;;;;6222666;23;19950;-93
2023/09/10 01:05:35;;;;;;;;;;;;;;;;;;6223989;23;19910;-93
2023/09/10 01:08:01;;;;;;;;;;;;;;;;;;6223678;23;19904;-93
2023/09/10 01:10:27;;;;;;;;;;;;;;;;;;6222729;23;19908;-93
2023/09/10 01:12:53;;;;;;;;;;;;;;;;;;6222433;23;20241;-91
2023/09/10 01:15:19;;;;;;;;;;;;;;;;;;6216873;23;19916;-94
2023/09/10 01:17:51;;;;;;;;;;;;;;;;;;6218750;23;19904;-94
2023/09/10 01:20:17;;;;;;;;;;;;;;;;;;6222951;23;19910;-95
2023/09/10 01:22:45;;;;;;;;;;;;;;;;;;6221313;23;19949;-93
2023/09/10 01:25:11;;;;;;;;;;;;;;;;;;6221869;23;20368;-92
2023/09/10 01:27:37;;;;;;;;;;;;;;;;;;6222276;23;19950;-93
2023/09/10 01:30:20;;;;;;;;;;;;;;;;;;6222666;23;19903;-93
2023/09/10 01:32:46;;;;;;;;;;;;;;;;;;6221980;23;19903;-94
2023/09/10 01:35:15;;;;;;;;;;;;;;;;;;6221785;23;20335;-94
2023/09/10 01:37:41;;;;;;;;;;;;;;;;;;6241255;22;19888;-94
2023/09/10 01:40:07;;;;;;;;;;;;;;;;;;6228349;23;20340;-93
2023/09/10 01:42:33;;;;;;;;;;;;;;;;;;6223863;23;19903;-92
2023/09/10 01:44:59;;;;;;;;;;;;;;;;;;6222339;23;19904;-95
2023/09/10 01:47:25;;;;;;;;;;;;;;;;;;6222103;23;19911;-94
2023/09/10 01:49:51;;;;;;;;;;;;;;;;;;6224762;23;20282;-94
2023/09/10 06:37:11;;;;;;;;;;;;;;;;;;6239346;22;19904;-94
2023/09/10 06:42:39;;;;;;;;;;;;;;;;;;6188807;23;19904;-92
2023/09/10 06:45:40;;;;;;;;;;;;;;;;;;6235382;22;19903;-94
2023/09/10 06:48:03;;;;;;;;;;;;;;;;;;6295460;22;19907;-92
2023/09/10 06:50:29;;;;;;;;;;;;;;;;;;6271921;22;19907;-94
2023/09/10 06:52:55;;;;;;;;;;;;;;;;;;6252397;22;19910;-92
2023/09/10 06:55:23;;;;;;;;;;;;;;;;;;6252529;22;19915;-94
2023/09/10 06:57:49;;;;;;;;;;;;;;;;;;6253373;22;19910;-91
2023/09/10 07:00:15;;;;;;;;;;;;;;;;;;6252126;22;19927;-92
2023/09/10 07:02:41;;;;;;;;;;;;;;;;;;6253373;22;19948;-90
2023/09/10 07:05:10;;;;;;;;;;;;;;;;;;6254114;22;19975;-92
2023/09/10 07:07:36;;;;;;;;;;;;;;;;;;6253043;22;20304;-92
2023/09/10 07:10:02;;;;;;;;;;;;;;;;;;6253434;22;19907;-91
2023/09/10 07:12:28;;;;;;;;;;;;;;;;;;6253659;22;19910;-92
2023/09/10 07:14:54;;;;;;;;;;;;;;;;;;6253743;22;19947;-92
2023/09/10 07:17:20;;;;;;;;;;;;;;;;;;6253878;22;19904;-92
2023/09/10 07:19:46;;;;;;;;;;;;;;;;;;6253585;22;19903;-91
2023/09/10 07:22:13;;;;;;;;;;;;;;;;;;6253241;22;19907;-91
2023/09/10 07:24:39;;;;;;;;;;;;;;;;;;6253619;22;19910;-94
2023/09/10 07:27:05;;;;;;;;;;;;;;;;;;6253335;22;19903;-95
2023/09/10 07:29:31;;;;;;;;;;;;;;;;;;6253231;22;19933;-92
2023/09/10 07:31:57;;;;;;;;;;;;;;;;;;6253678;22;19907;-91
2023/09/10 07:34:23;;;;;;;;;;;;;;;;;;6253288;22;19911;-92
2023/09/10 07:36:49;;;;;;;;;;;;;;;;;;6252687;22;19957;-91
2023/09/10 07:39:15;;;;;;;;;;;;;;;;;;6253612;22;20001;-92
2023/09/10 07:41:41;;;;;;;;;;;;;;;;;;6253017;22;20324;-90
2023/09/10 07:44:07;;;;;;;;;;;;;;;;;;6253133;22;19903;-90
2023/09/10 07:46:33;;;;;;;;;;;;;;;;;;6253599;22;19952;-90
2023/09/10 07:48:59;;;;;;;;;;;;;;;;;;6279819;22;20328;-91
2023/09/10 07:51:25;;;;;;;;;;;;;;;;;;6252994;22;19904;-91
2023/09/10 07:53:51;;;;;;;;;;;;;;;;;;6252777;22;19908;-96
2023/09/10 07:56:17;;;;;;;;;;;;;;;;;;6255453;22;19910;-96
2023/09/10 07:58:43;;;;;;;;;;;;;;;;;;6253229;22;19941;-95
2023/09/10 08:01:16;;;;;;;;;;;;;;;;;;6280446;22;20245;-96
2023/09/10 08:03:42;;;;;;;;;;;;;;;;;;6253478;22;19971;-96
2023/09/10 08:06:08;;;;;;;;;;;;;;;;;;6252308;22;19903;-95
2023/09/10 08:11:23;;;;;;;;;;;;;;;;;;6187874;23;19904;-96
2023/09/10 08:16:44;;;;;;;;;;;;;;;;;;6262612;22;19982;-95
2023/09/10 08:19:28;;;;;;;;;;;;;;;;;;6255219;22;19903;-95
2023/09/10 08:21:54;;;;;;;;;;;;;;;;;;6252681;22;19904;-96
2023/09/10 08:24:23;;;;;;;;;;;;;;;;;;6253065;22;19931;-96
2023/09/10 08:26:51;;;;;;;;;;;;;;;;;;6253096;22;20217;-96
2023/09/10 08:29:17;;;;;;;;;;;;;;;;;;6252764;22;19903;-96
2023/09/10 08:31:43;;;;;;;;;;;;;;;;;;6254150;22;20393;-96
2023/09/10 08:34:09;;;;;;;;;;;;;;;;;;6252636;22;19915;-96
2023/09/10 08:36:35;;;;;;;;;;;;;;;;;;6252995;22;19910;-95
2023/09/10 08:39:04;;;;;;;;;;;;;;;;;;6254001;22;19921;-95
2023/09/10 08:41:30;;;;;;;;;;;;;;;;;;6254008;22;19931;-95
2023/09/10 08:44:05;;;;;;;;;;;;;;;;;;6253777;22;19910;-96
2023/09/10 08:46:31;;;;;;;;;;;;;;;;;;6254283;22;19903;-96
2023/09/10 08:49:00;;;;;;;;;;;;;;;;;;6253916;22;19982;-96
2023/09/10 08:51:29;;;;;;;;;;;;;;;;;;6252447;22;19982;-96
2023/09/10 09:02:20;;;;;;;;;;;;;;;;;;6281561;22;19917;-96
2023/09/10 09:04:46;;;;;;;;;;;;;;;;;;6252798;22;20209;-95
2023/09/10 09:07:15;;;;;;;;;;;;;;;;;;6252432;22;19914;-96
2023/09/10 09:09:41;;;;;;;;;;;;;;;;;;6252864;22;19903;-95
2023/09/10 09:12:07;;;;;;;;;;;;;;;;;;6254285;22;19910;-95
2023/09/10 09:14:42;;;;;;;;;;;;;;;;;;6254940;22;19934;-95
2023/09/10 09:20:09;;;;;;;;;;;;;;;;;;6265315;22;19914;-95
2023/09/10 09:22:38;;;;;;;;;;;;;;;;;;6246118;22;19978;-95
2023/09/10 09:25:04;;;;;;;;;;;;;;;;;;6252495;22;19904;-95
2023/09/10 09:27:41;;;;;;;;;;;;;;;;;;;;;
2023/09/10 09:30:14;;;;;;;;;;;;;;;;;;6282003;22;19986;-95
2023/09/10 09:32:43;;;;;;;;;;;;;;;;;;6253763;22;19911;-94
2023/09/10 09:35:09;;;;;;;;;;;;;;;;;;6253756;22;19915;-94
2023/09/10 09:37:35;;;;;;;;;;;;;;;;;;6246974;23;19916;-94
2023/09/10 09:40:09;;;;;;;;;;;;;;;;;;6247317;23;19910;-94
2023/09/10 09:42:35;;;;;;;;;;;;;;;;;;6247057;23;19904;-94
2023/09/10 09:45:01;;;;;;;;;;;;;;;;;;6247481;23;19999;-92
2023/09/10 09:47:27;;;;;;;;;;;;;;;;;;6248897;23;20317;-92
2023/09/10 09:49:53;;;;;;;;;;;;;;;;;;6262220;22;19912;-91
2023/09/10 09:55:07;;;;;;;;;;;;;;;;;;6282175;22;19951;-95
2023/09/10 09:57:42;;;;;;;;;;;;;;;;;;6256749;22;19899;-93
2023/09/10 10:22:38;;;;;;;;;;;;;;;;;;6120444;23;19915;-95
2023/09/10 10:28:00;;;;;;;;;;;;;;;;;;6097561;23;19940;-95
2023/09/10 10:30:36;;;;;;;;;;;;;;;;;;;;;
2023/09/10 10:33:07;;;;;;;;;;;;;;;;;;6112135;23;19937;-96
2023/09/10 10:38:29;;;;;;;;;;;;;;;;;;6133920;23;19943;-95
2023/09/10 10:40:55;;;;;;;;;;;;;;;;;;6150973;23;19904;-95
2023/09/10 10:43:33;;;;;;;;;;;;;;;;;;6184903;22;19952;-96
2023/09/10 10:46:14;;;;;;;;;;;;;;;;;;6255731;22;19900;-94
2023/09/10 10:48:41;;;;;;;;;;;;;;;;;;6257000;22;20331;-96
2023/09/10 10:51:10;;;;;;;;;;;;;;;;;;6252375;22;19923;-95
2023/09/10 10:53:38;;;;;;;;;;;;;;;;;;6252895;22;19915;-95
2023/09/10 10:56:10;;;;;;;;;;;;;;;;;;6259665;22;19907;-96
2023/09/10 10:58:40;;;;;;;;;;;;;;;;;;6251485;22;19904;-95
2023/09/10 11:01:09;;;;;;;;;;;;;;;;;;6252507;22;19903;-96
2023/09/10 11:03:35;;;;;;;;;;;;;;;;;;6253250;22;19910;-96
2023/09/10 11:09:35;;;;;;;;;;;;;;;;;;6186272;23;19911;-95
2023/09/10 11:17:38;;;;;;;;;;;;;;;;;;6186491;23;19951;-95
2023/09/10 11:20:16;;;;;;;;;;;;;;;;;;;;;
2023/09/10 11:26:17;;;;;;;;;;;;;;;;;;6127850;23;19905;-95
2023/09/10 11:56:55;;;;;;;;;;;;;;;;;;5054183;28;19928;-96
2023/09/10 12:09:56;;;;;;;;;;;;;;;;;;6156885;23;19968;-96
2023/09/10 12:42:03;;;;;;;;;;;;;;;;;;5867685;22;19956;-96
2023/09/10 12:50:07;;;;;;;;;;;;;;;;;;5049746;28;19908;-95
2023/09/10 12:52:36;;;;;;;;;;;;;;;;;;5019361;28;19918;-95
2023/09/10 12:55:02;;;;;;;;;;;;;;;;;;5003301;28;19916;-95
2023/09/10 12:57:31;;;;;;;;;;;;;;;;;;5000176;28;20429;-96
2023/09/10 13:05:30;;;;;;;;;;;;;;;;;;5000185;28;19909;-96
2023/09/10 13:16:21;;;;;;;;;;;;;;;;;;;;;
2023/09/10 13:18:53;;;;;;;;;;;;;;;;;;4977544;28;19910;-96
2023/09/10 13:21:35;;;;;;;;;;;;;;;;;;4962106;28;19926;-96
2023/09/10 13:42:49;;;;;;;;;;;;;;;;;;5618402;22;19925;-94
2023/09/10 13:45:15;;;;;;;;;;;;;;;;;;5022103;28;19932;-91
2023/09/10 13:47:41;;;;;;;;;;;;;;;;;;5020998;28;20366;-94
2023/09/10 13:50:07;;;;;;;;;;;;;;;;;;5020159;28;19909;-92
2023/09/10 13:52:33;;;;;;;;;;;;;;;;;;5019542;28;19909;-92
2023/09/10 13:54:59;;;;;;;;;;;;;;;;;;5023087;28;19920;-90
2023/09/10 13:57:25;;;;;;;;;;;;;;;;;;5022456;28;19996;-91
2023/09/10 13:59:57;;;;;;;;;;;;;;;;;;5021677;28;19909;-91
2023/09/10 14:02:29;;;;;;;;;;;;;;;;;;5019274;28;19975;-94
2023/09/10 14:04:55;;;;;;;;;;;;;;;;;;5028952;28;19908;-91
2023/09/10 14:07:21;;;;;;;;;;;;;;;;;;5020490;28;20316;-93
2023/09/10 14:09:47;;;;;;;;;;;;;;;;;;5019030;28;19913;-91
2023/09/10 14:12:21;;;;;;;;;;;;;;;;;;5022196;28;19909;-92
2023/09/10 14:14:47;;;;;;;;;;;;;;;;;;5029394;28;19913;-92
2023/09/10 14:17:15;;;;;;;;;;;;;;;;;;5020369;28;20000;-92
2023/09/10 14:19:47;;;;;;;;;;;;;;;;;;5018210;28;19909;-93
2023/09/10 14:22:22;;;;;;;;;;;;;;;;;;5018157;28;20374;-93
2023/09/10 14:24:53;;;;;;;;;;;;;;;;;;5018100;28;20004;-93
2023/09/10 14:27:28;;;;;;;;;;;;;;;;;;5018235;28;19916;-92
2023/09/10 14:29:54;;;;;;;;;;;;;;;;;;5017900;28;20031;-91
2023/09/10 14:32:23;;;;;;;;;;;;;;;;;;5017806;28;20059;-95
2023/09/10 14:34:52;;;;;;;;;;;;;;;;;;5017884;28;19913;-92
2023/09/10 14:37:27;;;;;;;;;;;;;;;;;;5018344;28;20001;-93
2023/09/10 14:39:56;;;;;;;;;;;;;;;;;;5017716;28;20358;-92
2023/09/10 14:42:22;;;;;;;;;;;;;;;;;;5014371;28;19975;-93
2023/09/10 14:44:48;;;;;;;;;;;;;;;;;;5014951;28;19999;-91
2023/09/10 14:47:14;;;;;;;;;;;;;;;;;;5015150;28;19920;-93
2023/09/10 14:49:40;;;;;;;;;;;;;;;;;;5014401;28;19909;-93
2023/09/10 14:52:06;;;;;;;;;;;;;;;;;;5014661;28;19968;-92
2023/09/10 14:54:32;;;;;;;;;;;;;;;;;;5014265;28;19949;-92
2023/09/10 14:56:58;;;;;;;;;;;;;;;;;;5014036;28;19910;-92
2023/09/10 14:59:24;;;;;;;;;;;;;;;;;;5014188;28;19952;-94
2023/09/10 15:01:50;;;;;;;;;;;;;;;;;;5013813;28;19917;-93
2023/09/10 15:04:16;;;;;;;;;;;;;;;;;;5014388;28;19993;-91
2023/09/10 15:06:42;;;;;;;;;;;;;;;;;;5014227;28;19956;-91
2023/09/10 15:09:08;;;;;;;;;;;;;;;;;;5014440;28;19909;-90
2023/09/10 15:11:34;;;;;;;;;;;;;;;;;;5014519;28;19959;-91
2023/09/10 15:14:00;;;;;;;;;;;;;;;;;;5014338;28;19913;-92
2023/09/10 15:16:26;;;;;;;;;;;;;;;;;;5014515;28;20012;-91
2023/09/10 15:18:55;;;;;;;;;;;;;;;;;;5014890;28;19913;-92
2023/09/10 15:21:21;;;;;;;;;;;;;;;;;;5018519;28;19925;-92
2023/09/10 15:23:50;;;;;;;;;;;;;;;;;;5020529;28;19916;-93
2023/09/10 15:26:16;;;;;;;;;;;;;;;;;;5015108;28;19910;-92
2023/09/10 15:28:45;;;;;;;;;;;;;;;;;;5014521;28;19932;-94
2023/09/10 15:31:13;;;;;;;;;;;;;;;;;;5014434;28;19916;-93
2023/09/10 15:33:45;;;;;;;;;;;;;;;;;;5013412;28;19924;-92
2023/09/10 15:36:11;;;;;;;;;;;;;;;;;;5015404;28;19983;-93
2023/09/10 15:38:37;;;;;;;;;;;;;;;;;;5014443;28;20251;-93
2023/09/10 15:41:03;;;;;;;;;;;;;;;;;;5015107;28;19916;-93
2023/09/10 15:43:32;;;;;;;;;;;;;;;;;;5015168;28;20382;-93
2023/09/10 15:46:01;;;;;;;;;;;;;;;;;;5025092;28;19952;-92
2023/09/10 15:48:27;;;;;;;;;;;;;;;;;;5037764;28;19902;-91
2023/09/10 15:50:53;;;;;;;;;;;;;;;;;;5019671;28;20008;-91
2023/09/10 15:53:19;;;;;;;;;;;;;;;;;;5015206;28;19910;-93
2023/09/10 15:55:45;;;;;;;;;;;;;;;;;;5014021;28;19917;-92
2023/09/10 15:58:14;;;;;;;;;;;;;;;;;;5014339;28;19915;-93
2023/09/10 16:00:43;;;;;;;;;;;;;;;;;;5013643;28;19914;-95
2023/09/10 16:03:19;;;;;;;;;;;;;;;;;;;;;
2023/09/10 16:05:48;;;;;;;;;;;;;;;;;;5020702;28;20004;-96
2023/09/10 16:10:50;;;;;;;;;;;;;;;;;;5611947;22;19913;-92
2023/09/10 16:13:16;;;;;;;;;;;;;;;;;;5049664;28;19915;-93
2023/09/10 16:15:45;;;;;;;;;;;;;;;;;;5039978;28;20002;-92
2023/09/10 16:18:11;;;;;;;;;;;;;;;;;;5036465;28;20008;-92
2023/09/10 16:20:40;;;;;;;;;;;;;;;;;;5036533;28;19944;-90
2023/09/10 16:23:09;;;;;;;;;;;;;;;;;;5036642;28;19917;-92
2023/09/10 16:25:35;;;;;;;;;;;;;;;;;;5036578;28;20636;-93
2023/09/10 16:28:04;;;;;;;;;;;;;;;;;;5037414;28;19912;-92
2023/09/10 16:30:30;;;;;;;;;;;;;;;;;;5040079;28;19915;-92
2023/09/10 16:32:56;;;;;;;;;;;;;;;;;;5040256;28;19909;-91
2023/09/10 16:35:22;;;;;;;;;;;;;;;;;;5040075;28;19936;-92
2023/09/10 16:37:51;;;;;;;;;;;;;;;;;;5039948;28;19909;-90
2023/09/10 16:43:06;;;;;;;;;;;;;;;;;;5047949;28;19921;-93
2023/09/10 16:45:32;;;;;;;;;;;;;;;;;;5040333;28;20320;-94
2023/09/10 16:47:58;;;;;;;;;;;;;;;;;;5039580;28;19916;-91
2023/09/10 16:50:27;;;;;;;;;;;;;;;;;;5039778;28;20008;-91
2023/09/10 16:52:57;;;;;;;;;;;;;;;;;;5039508;28;19913;-92
2023/09/10 16:55:23;;;;;;;;;;;;;;;;;;5039449;28;19933;-93
2023/09/10 16:57:52;;;;;;;;;;;;;;;;;;5040305;28;20350;-92
2023/09/10 17:00:18;;;;;;;;;;;;;;;;;;5039514;28;20045;-93
2023/09/10 17:02:44;;;;;;;;;;;;;;;;;;5039529;28;20425;-91
2023/09/10 17:05:10;;;;;;;;;;;;;;;;;;5039577;28;19909;-92
2023/09/10 17:07:36;;;;;;;;;;;;;;;;;;5036951;28;19909;-94
2023/09/10 17:10:02;;;;;;;;;;;;;;;;;;5036672;28;19963;-92
2023/09/10 17:12:28;;;;;;;;;;;;;;;;;;5038469;28;19932;-92
2023/09/10 17:14:57;;;;;;;;;;;;;;;;;;5037509;28;19916;-91
2023/09/10 17:17:26;;;;;;;;;;;;;;;;;;5036263;28;19916;-93
2023/09/10 17:19:52;;;;;;;;;;;;;;;;;;5035838;28;19909;-93
2023/09/10 17:22:21;;;;;;;;;;;;;;;;;;5036033;28;20016;-92
2023/09/10 17:24:50;;;;;;;;;;;;;;;;;;5036027;28;19909;-92
2023/09/10 17:27:16;;;;;;;;;;;;;;;;;;5035751;28;20007;-91
2023/09/10 17:29:57;;;;;;;;;;;;;;;;;;5037481;28;20026;-95
2023/09/10 17:35:21;;;;;;;;;;;;;;;;;;5048470;28;19966;-95
